Tiempo atmosférico en la estación meteorológica de Lanaja, Huesca (380 m.)



Fecha
DESCASC
Temp. máxima en grados centígrados (hora)
DESCASC
Temp. mínima en grados centígrados (hora)
DESCASC
Temp. media en grados centígrados
DESCASC
Racha de viento máxima en m/sg (hora)
DESCASC
Velocidad máxima media en intervalos de 10 minutos(hora)
DESCASC
Precipitaciones diarias en mm
DESCASC
Precipitaciones de 00:00 a 06:00 en mm
DESCASC
Precipitaciones de 06:00 a 12:00 en mm
DESCASC
Precipitaciones de 12:00 a 18:00 en mm
DESCASC
Precipitaciones de 18:00 a 24:00 en mm
DESCASC
06-07-2020 32.1 (16:10) 17.6 (06:40) 24.8 16.11 (20:20) 11.67 (20:00) 0 0 0 0 0
05-07-2020 34.2 (17:30) 15.8 (06:10) 25 6.39 (22:30) 4.17 (22:30) 0 0 0 0 0
04-07-2020 30.9 (19:20) 11.8 (06:10) 21.3 13.33 (00:30) 10 (00:30) 0 0 0 0 0
03-07-2020 27.3 (16:50) 15.3 (06:50) 21.3 14.72 (01:00) 10.28 (01:00) 0 0 0 0 0
02-07-2020 31 (17:40) 18.1 (00:00) 24.6 14.17 (21:10) 10.56 (23:00) 1.8 1.6 0.2 0 0
01-07-2020 34 (18:10) 18.9 (00:00) 26.4 11.11 (20:30) 8.33 (20:40) 1.8 1.8 0 0 0
30-06-2020 31.9 (17:00) 18.1 (00:00) 25 10 (19:20) 6.11 (18:50) 0 0 0 0 0
29-06-2020 33.1 (19:40) 17.9 (00:00) 25.5 6.39 (16:30) 4.72 (05:30) 0 0 0 0 0
28-06-2020 32.6 (19:10) 19.3 (00:00) 25.9 6.67 (21:30) 4.17 (21:40) 0 0 0 0 0
27-06-2020 32.9 (18:10) 16.6 (00:00) 24.8 6.67 (15:50) 3.89 (07:10) 0 0 0 0 0
26-06-2020 31.3 (15:20) 17.5 (00:00) 24.4 14.17 (18:40) 6.94 (19:00) 2.2 0.8 0 0 1.4
25-06-2020 32.8 (16:20) 17.2 (00:00) 25 21.39 (21:40) 10 (19:40) 0.4 0 0 0 0.4
24-06-2020 32.7 (16:10) 17.7 (00:00) 25.2 17.78 (17:40) 11.94 (18:00) 0 0 0 0 0
23-06-2020 32.1 (17:00) 16.8 (00:00) 24.4 8.61 (14:40) 5 (21:00) 0 0 0 0 0
22-06-2020 32.2 (19:00) 15.5 (00:00) 23.9 10 (01:10) 7.5 (01:10) 0 0 0 0 0
21-06-2020 32 (17:10) 15.3 (00:00) 23.7 12.78 (18:00) 9.17 (18:20) 0 0 0 0 0
20-06-2020 30.6 (18:20) 15.5 (00:00) 23.1 9.17 (18:20) 5.28 (17:30) 0 0 0 0 0
19-06-2020 26.3 (19:10) 14.4 (00:00) 20.3 7.22 (20:20) 4.72 (20:20) 0 0 0 0 0
18-06-2020 24.1 (17:10) 12.4 (00:00) 18.3 6.94 (03:30) 3.61 (00:20) 12.6 8.6 4 0 0
17-06-2020 23.3 (17:20) 12.9 (00:00) 18.1 11.11 (18:00) 7.22 (16:50) 0 0 0 0 0
16-06-2020 24.3 (17:50) 13.9 (00:00) 19.1 15.56 (18:50) 9.44 (19:00) 5.6 2 3.2 0.4 0
15-06-2020 26.2 (18:00) 14.1 (00:00) 20.2 10 (16:10) 6.67 (11:40) 0.2 0 0 0 0.2
14-06-2020 26.2 (14:40) 13.3 (00:00) 19.8 7.22 (18:40) 5.28 (18:50) 0 0 0 0 0
13-06-2020 23.1 (17:50) 12 (00:00) 17.6 12.5 (11:10) 8.06 (11:20) 0 0 0 0 0
12-06-2020 22.7 (16:30) 11 (00:00) 16.9 11.94 (22:20) 7.78 (22:20) 0.2 0.2 0 0 0
11-06-2020 23.4 (14:00) 13.8 (00:00) 18.6 7.78 (21:00) 6.11 (21:00) 3.2 0 0 0 3.2
10-06-2020 23.7 (15:50) 10.4 (00:00) 17.1 11.39 (17:40) 7.78 (17:40) 0 0 0 0 0
09-06-2020 22.3 (16:30) 10.6 (00:00) 16.4 14.72 (20:10) 10.28 (20:20) 0 0 0 0 0
08-06-2020 22.4 (16:20) 9.3 (05:30) 15.8 17.78 (21:20) 12.5 (21:10) 0 0 0 0 0
07-06-2020 22 (15:00) 11.6 (00:00) 16.8 15 (20:50) 10.83 (20:00) 0.2 0 0 0.2 0

Gráficas

Temp. máximas Temp. mínimas Temp. medias Precipitaciones Rachas de viento máximas Velocidades máximas media en intervalos de 10 minutos

Datos horarios

Fecha y hora oficial Temperatura (ºC) Velocidad del viento (km/h) Dirección del viento Racha (km/h) Dirección de racha Precipitación (mm) Presión (hPa) Tendencia (hPa) Humedad (%)
2020-07-06 23:00:00 19.1 30 Noroeste 48 Noroeste 0 -- -- 57
2020-07-06 22:00:00 21 38 Noroeste 53 Noroeste 0 -- -- 54
2020-07-06 21:00:00 23.7 38 Noroeste 58 Noroeste 0 -- -- 49
2020-07-06 20:00:00 26.8 42 Noroeste 57 Noroeste 0 -- -- 41
2020-07-06 19:00:00 28.4 39 Noroeste 54 Noroeste 0 -- -- 37
2020-07-06 18:00:00 30.4 36 Noroeste 50 Noroeste 0 -- -- 33
2020-07-06 17:00:00 31.2 33 Noroeste 46 Noroeste 0 -- -- 33
2020-07-06 16:00:00 31.8 26 Noroeste 41 Noroeste 0 -- -- 34
2020-07-06 15:00:00 31.1 26 Noroeste 52 Noroeste 0 -- -- 36
2020-07-06 14:00:00 30.2 21 Noroeste 34 Noroeste 0 -- -- 39
2020-07-06 13:00:00 29.1 15 Noroeste 29 Oeste 0 -- -- 43
2020-07-06 12:00:00 27.2 15 Noroeste 28 Noroeste 0 -- -- 45
2020-07-06 11:00:00 25.3 14 Noroeste 29 Noroeste 0 -- -- 50
2020-07-06 10:00:00 23.5 17 Noroeste 28 Noroeste 0 -- -- 54
2020-07-06 09:00:00 21.5 18 Noroeste 23 Noroeste 0 -- -- 59
2020-07-06 08:00:00 19.3 11 Noroeste 17 Noroeste 0 -- -- 67
2020-07-06 07:00:00 17.8 10 Noroeste 15 Noroeste 0 -- -- 72
2020-07-06 06:00:00 17.8 12 Noroeste 16 Noroeste 0 -- -- 71
2020-07-06 05:00:00 18.9 8 Noroeste 14 Noroeste 0 -- -- 68
2020-07-06 04:00:00 20 12 Noroeste 19 Noroeste 0 -- -- 65
2020-07-06 03:00:00 21.2 12 Noroeste 15 Noroeste 0 -- -- 63
2020-07-06 02:00:00 23.2 9 Noroeste 18 Noroeste 0 -- -- 57
2020-07-06 01:00:00 24.8 14 Noroeste 22 Noroeste 0 -- -- 52
2020-07-06 00:00:00 27 12 Oeste 15 Oeste 0 -- -- 46
2020-07-05 23:00:00 27.7 10 Noroeste 23 Noroeste 0 -- -- 41
2020-07-05 22:00:00 29.8 5 Sudoeste 9 Sudeste 0 -- -- 35
2020-07-05 21:00:00 32.6 6 Sudeste 11 Sudeste 0 -- -- 29
2020-07-05 20:00:00 34 5 Sur 11 Sudeste 0 -- -- 27
2020-07-05 19:00:00 33.2 8 Nordeste 15 Norte 0 -- -- 30
2020-07-05 18:00:00 33.5 7 Nordeste 15 Sudeste 0 -- -- 28
2020-07-05 17:00:00 33.4 6 Sur 15 Sudeste 0 -- -- 28
2020-07-05 16:00:00 32.3 5 Este 18 Sudeste 0 -- -- 30
2020-07-05 15:00:00 31.3 7 Sudeste 17 Este 0 -- -- 31
2020-07-05 14:00:00 29.7 8 Nordeste 17 Este 0 -- -- 33
2020-07-05 13:00:00 28.1 7 Este 16 Nordeste 0 -- -- 36
2020-07-05 12:00:00 26.2 5 Nordeste 14 Nordeste 0 -- -- 44
2020-07-05 11:00:00 23.8 9 Nordeste 18 Norte 0 -- -- 50
2020-07-05 10:00:00 21.9 14 Norte 19 Norte 0 -- -- 49
2020-07-05 09:00:00 20.6 8 Norte 12 Norte 0 -- -- 47
2020-07-05 08:00:00 18 6 Noroeste 14 Noroeste 0 -- -- 55
2020-07-05 07:00:00 16.6 12 Noroeste 15 Noroeste 0 -- -- 57
2020-07-05 06:00:00 16 10 Noroeste 18 Noroeste 0 -- -- 58
2020-07-05 05:00:00 16.4 12 Noroeste 17 Noroeste 0 -- -- 58
2020-07-05 04:00:00 17.7 13 Noroeste 17 Noroeste 0 -- -- 54
2020-07-05 03:00:00 17.8 10 Noroeste 18 Noroeste 0 -- -- 54
2020-07-05 02:00:00 19.4 10 Norte 12 Noroeste 0 -- -- 49
2020-07-05 01:00:00 20.9 4 Noroeste 11 Oeste 0 -- -- 44
2020-07-05 00:00:00 22.5 12 Noroeste 21 Oeste 0 -- -- 39
2020-07-04 23:00:00 23.7 17 Oeste 22 Oeste 0 -- -- 36
2020-07-04 22:00:00 25.6 15 Oeste 21 Noroeste 0 -- -- 30
2020-07-04 21:00:00 28.9 15 Noroeste 22 Oeste 0 -- -- 25
2020-07-04 20:00:00 30.9 11 Oeste 22 Noroeste 0 -- -- 23
2020-07-04 19:00:00 30.4 11 Norte 25 Noroeste 0 -- -- 23
2020-07-04 18:00:00 29.9 10 Nordeste 30 Noroeste 0 -- -- 27
2020-07-04 17:00:00 29.4 15 Norte 26 Norte 0 -- -- 24
2020-07-04 16:00:00 28.2 15 Norte 26 Noroeste 0 -- -- 29
2020-07-04 15:00:00 26.7 12 Noroeste 28 Noroeste 0 -- -- 31
2020-07-04 14:00:00 25.9 15 Noroeste 26 Noroeste 0 -- -- 30
2020-07-04 13:00:00 23.9 12 Noroeste 26 Noroeste 0 -- -- 36
2020-07-04 12:00:00 22 11 Noroeste 24 Noroeste 0 -- -- 41
2020-07-04 11:00:00 20.3 11 Noroeste 22 Noroeste 0 -- -- 47
2020-07-04 10:00:00 18.6 16 Noroeste 26 Noroeste 0 -- -- 52
2020-07-04 09:00:00 16.3 16 Noroeste 21 Noroeste 0 -- -- 60
2020-07-04 08:00:00 14.1 2 Norte 14 Noroeste 0 -- -- 68
2020-07-04 07:00:00 12 8 Noroeste 14 Noroeste 0 -- -- 75
2020-07-04 06:00:00 12.1 9 Noroeste 24 Oeste 0 -- -- 73
2020-07-04 05:00:00 13.3 15 Oeste 32 Noroeste 0 -- -- 67
2020-07-04 04:00:00 13.6 15 Noroeste 27 Noroeste 0 -- -- 66
2020-07-04 03:00:00 15.4 20 Noroeste 37 Noroeste 0 -- -- 57
2020-07-04 02:00:00 16.5 24 Noroeste 47 Noroeste 0 -- -- 55
2020-07-04 01:00:00 18 32 Noroeste 48 Noroeste 0 -- -- 48
2020-07-04 00:00:00 19.2 32 Noroeste 44 Noroeste 0 -- -- 44
2020-07-03 23:00:00 19.9 29 Noroeste 46 Noroeste 0 -- -- 41
2020-07-03 22:00:00 20.9 22 Noroeste 35 Noroeste 0 -- -- 41
2020-07-03 21:00:00 23.5 26 Noroeste 44 Noroeste 0 -- -- 36
2020-07-03 20:00:00 25.2 30 Noroeste 44 Noroeste 0 -- -- 32
2020-07-03 19:00:00 26.2 30 Noroeste 41 Noroeste 0 -- -- 29
2020-07-03 18:00:00 26.7 27 Noroeste 42 Noroeste 0 -- -- 28
2020-07-03 17:00:00 27 22 Noroeste 39 Noroeste 0 -- -- 28
2020-07-03 16:00:00 26.6 22 Noroeste 37 Noroeste 0 -- -- 30
2020-07-03 15:00:00 25.7 24 Noroeste 42 Oeste 0 -- -- 32
2020-07-03 14:00:00 24.7 23 Noroeste 44 Noroeste 0 -- -- 35
2020-07-03 13:00:00 23.5 22 Noroeste 41 Noroeste 0 -- -- 41
2020-07-03 12:00:00 22.6 22 Noroeste 38 Noroeste 0 -- -- 42
2020-07-03 11:00:00 21.2 25 Noroeste 46 Noroeste 0 -- -- 45
2020-07-03 10:00:00 19 31 Noroeste 47 Noroeste 0 -- -- 50
2020-07-03 09:00:00 17.3 30 Noroeste 45 Noroeste 0 -- -- 55
2020-07-03 08:00:00 16 28 Noroeste 44 Noroeste 0 -- -- 61
2020-07-03 07:00:00 15.3 29 Noroeste 41 Oeste 0 -- -- 65
2020-07-03 06:00:00 15.8 28 Noroeste 48 Oeste 0 -- -- 64
2020-07-03 05:00:00 16.2 22 Noroeste 33 Noroeste 0 -- -- 63
2020-07-03 04:00:00 16.7 15 Noroeste 46 Noroeste 0 -- -- 63
2020-07-03 03:00:00 16.6 31 Noroeste 49 Noroeste 0 -- -- 65
2020-07-03 02:00:00 17.3 34 Noroeste 51 Noroeste 0 -- -- 63
2020-07-03 01:00:00 18 37 Noroeste 53 Noroeste 0 -- -- 61
2020-07-03 00:00:00 19 27 Noroeste 50 Noroeste 0 -- -- 59
2020-07-02 23:00:00 20 38 Noroeste 51 Noroeste 0 -- -- 57
2020-07-02 22:00:00 21.6 31 Noroeste 51 Noroeste 0 -- -- 53
2020-07-02 21:00:00 24.2 34 Noroeste 50 Noroeste 0 -- -- 46
2020-07-02 20:00:00 26.1 31 Noroeste 51 Noroeste 0 -- -- 43
2020-07-02 19:00:00 29.5 22 Noroeste 32 Noroeste 0 -- -- 38
2020-07-02 18:00:00 30.6 10 Nordeste 22 Nordeste 0 -- -- 36
2020-07-02 17:00:00 30.7 13 Norte 24 Norte 0 -- -- 38
2020-07-02 16:00:00 30.1 11 Nordeste 24 Nordeste 0 -- -- 40
2020-07-02 15:00:00 29.1 13 Nordeste 22 Este 0 -- -- 43
2020-07-02 14:00:00 27.8 10 Norte 20 Norte 0 -- -- 46
2020-07-02 13:00:00 26.9 7 Nordeste 18 Nordeste 0 -- -- 51
2020-07-02 12:00:00 25.4 7 Nordeste 16 Nordeste 0 -- -- 56
2020-07-02 11:00:00 24 9 Nordeste 19 Norte 0 -- -- 60
2020-07-02 10:00:00 21.8 11 Norte 19 Nordeste 0 -- -- 69
2020-07-02 09:00:00 20.4 8 Norte 13 Nordeste 0.2 -- -- 76
2020-07-02 08:00:00 18.5 7 Noroeste 11 Noroeste 0 -- -- 86
2020-07-02 07:00:00 18.1 3 Sudeste 11 Sudoeste 0 -- -- 85
2020-07-02 06:00:00 18.5 6 Sur 9 Sur 0 -- -- 86
2020-07-02 05:00:00 19.4 2 Oeste 9 Noroeste 1.6 -- -- 75
2020-07-02 04:00:00 21 0 Calma 20 Oeste 0 -- -- 65
2020-07-02 03:00:00 21.8 12 Noroeste 26 Noroeste 0 -- -- 62
2020-07-02 02:00:00 22.6 17 Noroeste 27 Noroeste 0 -- -- 60
2020-07-02 01:00:00 23.6 12 Noroeste 19 Noroeste 0 -- -- 55
2020-07-02 00:00:00 24.7 4 Sudoeste 17 Noroeste 0 -- -- 53
2020-07-01 23:00:00 25 10 Noroeste 17 Noroeste 0 -- -- 51
2020-07-01 22:00:00 25.1 13 Noroeste 16 Noroeste 0 -- -- 51
2020-07-01 21:00:00 26.6 15 Norte 40 Noroeste 0 -- -- 49
2020-07-01 20:00:00 30.8 19 Noroeste 34 Noroeste 0 -- -- 39
2020-07-01 19:00:00 32.4 4 Norte 14 Nordeste 0 -- -- 35
2020-07-01 18:00:00 33.8 5 Norte 22 Nordeste 0 -- -- 31
2020-07-01 17:00:00 32.8 16 Norte 24 Nordeste 0 -- -- 36
2020-07-01 16:00:00 33 10 Nordeste 22 Este 0 -- -- 37
2020-07-01 15:00:00 31.7 9 Sudeste 19 Este 0 -- -- 41
2020-07-01 14:00:00 30.8 8 Nordeste 18 Este 0 -- -- 40
2020-07-01 13:00:00 29.1 11 Sudeste 18 Este 0 -- -- 46
2020-07-01 12:00:00 27.8 9 Sudeste 19 Sudeste 0 -- -- 50
2020-07-01 11:00:00 26.1 8 Sudeste 14 Sudeste 0 -- -- 61
2020-07-01 10:00:00 24.3 7 Sudeste 14 Este 0 -- -- 67
2020-07-01 09:00:00 22.1 7 Nordeste 10 Nordeste 0 -- -- 76
2020-07-01 08:00:00 20.2 5 Sudoeste 8 Oeste 0 -- -- 84
2020-07-01 07:00:00 18.9 5 Nordeste 10 Sur 0 -- -- 85
2020-07-01 06:00:00 19.1 6 Sudoeste 11 Sudoeste 0 -- -- 86
2020-07-01 05:00:00 19.5 3 Sudoeste 10 Sudoeste 0 -- -- 88
2020-07-01 04:00:00 19.7 6 Sudoeste 13 Este 0 -- -- 88
2020-07-01 03:00:00 19.8 6 Este 13 Sudeste 0 -- -- 89
2020-07-01 02:00:00 20.8 8 Nordeste 17 Sudeste 1.2 -- -- 87
2020-07-01 01:00:00 21.5 12 Sudeste 21 Este 0.6 -- -- 85
2020-07-01 00:00:00 22.1 9 Norte 24 Este 0 -- -- 80
2020-06-30 23:00:00 23.7 8 Sudeste 28 Este 0 -- -- 70
2020-06-30 22:00:00 25.9 8 Nordeste 24 Este 0 -- -- 66
2020-06-30 21:00:00 28 17 Este 29 Este 0 -- -- 55
2020-06-30 20:00:00 30 18 Este 36 Este 0 -- -- 47
2020-06-30 19:00:00 31 20 Sudeste 35 Sudeste 0 -- -- 46
2020-06-30 18:00:00 31.6 18 Este 32 Sudeste 0 -- -- 44
2020-06-30 17:00:00 31.9 12 Este 29 Este 0 -- -- 41
2020-06-30 16:00:00 30.9 13 Sudeste 31 Este 0 -- -- 40
2020-06-30 15:00:00 29.5 13 Sudeste 25 Este 0 -- -- 45
2020-06-30 14:00:00 28.7 10 Sudeste 20 Sudeste 0 -- -- 49
2020-06-30 13:00:00 27.3 7 Sudeste 16 Este 0 -- -- 57
2020-06-30 12:00:00 25.5 5 Sudeste 12 Sudeste 0 -- -- 64
2020-06-30 11:00:00 22.5 5 Sur 11 Este 0 -- -- 71
2020-06-30 10:00:00 20.6 6 Nordeste 13 Este 0 -- -- 67
2020-06-30 09:00:00 20.9 5 Nordeste 10 Noroeste 0 -- -- 62
2020-06-30 08:00:00 19.1 5 Noroeste 12 Noroeste 0 -- -- 61
2020-06-30 07:00:00 18.1 7 Noroeste 12 Noroeste 0 -- -- 62
2020-06-30 06:00:00 18.4 0 Calma 8 Sudoeste 0 -- -- 66
2020-06-30 05:00:00 19 5 Noroeste 10 Oeste 0 -- -- 62
2020-06-30 04:00:00 19.7 8 Oeste 12 Oeste 0 -- -- 59
2020-06-30 03:00:00 20.7 10 Oeste 13 Oeste 0 -- -- 56
2020-06-30 02:00:00 21.5 9 Noroeste 11 Noroeste 0 -- -- 56
2020-06-30 01:00:00 21.7 3 Noroeste 27 Noroeste 0 -- -- 58
2020-06-30 00:00:00 22.4 12 Noroeste 21 Norte 0 -- -- 58
2020-06-29 23:00:00 24.4 9 Noroeste 22 Noroeste 0 -- -- 55
2020-06-29 22:00:00 26.9 14 Norte 23 Norte 0 -- -- 49
2020-06-29 21:00:00 31.9 6 Nordeste 10 Nordeste 0 -- -- 40
2020-06-29 20:00:00 33 5 Nordeste 17 Nordeste 0 -- -- 37
2020-06-29 19:00:00 32.6 8 Nordeste 17 Nordeste 0 -- -- 38
2020-06-29 18:00:00 32.7 9 Nordeste 20 Nordeste 0 -- -- 38
2020-06-29 17:00:00 32.3 8 Este 23 Norte 0 -- -- 40
2020-06-29 16:00:00 31.7 8 Este 22 Nordeste 0 -- -- 42
2020-06-29 15:00:00 30.5 7 Norte 19 Norte 0 -- -- 45
2020-06-29 14:00:00 29.6 9 Este 18 Este 0 -- -- 47
2020-06-29 13:00:00 28.3 9 Nordeste 19 Nordeste 0 -- -- 53
2020-06-29 12:00:00 26.8 8 Nordeste 19 Este 0 -- -- 57
2020-06-29 11:00:00 25.2 8 Norte 14 Norte 0 -- -- 62
2020-06-29 10:00:00 23.5 8 Norte 15 Norte 0 -- -- 64
2020-06-29 09:00:00 21.8 12 Norte 17 Noroeste 0 -- -- 68
2020-06-29 08:00:00 19.6 10 Noroeste 14 Noroeste 0 -- -- 73
2020-06-29 07:00:00 18.2 10 Noroeste 13 Noroeste 0 -- -- 77
2020-06-29 06:00:00 18.7 9 Noroeste 19 Noroeste 0 -- -- 75
2020-06-29 05:00:00 19.3 7 Noroeste 10 Norte 0 -- -- 74
2020-06-29 04:00:00 20.3 9 Norte 12 Norte 0 -- -- 79
2020-06-29 03:00:00 21.2 7 Norte 9 Norte 0 -- -- 81
2020-06-29 02:00:00 23.1 4 Nordeste 13 Este 0 -- -- 73
2020-06-29 01:00:00 24.7 8 Nordeste 15 Sudoeste 0 -- -- 66
2020-06-29 00:00:00 26.3 9 Sur 19 Sur 0 -- -- 56
2020-06-28 23:00:00 27.3 11 Sur 21 Sur 0 -- -- 55
2020-06-28 22:00:00 28.3 14 Sur 24 Sudeste 0 -- -- 54
2020-06-28 21:00:00 30.7 6 Este 15 Este 0 -- -- 42
2020-06-28 20:00:00 32.3 5 Nordeste 15 Nordeste 0 -- -- 39
2020-06-28 19:00:00 32.2 9 Nordeste 17 Nordeste 0 -- -- 40
2020-06-28 18:00:00 31.7 5 Nordeste 15 Nordeste 0 -- -- 40
2020-06-28 17:00:00 31.3 9 Nordeste 15 Nordeste 0 -- -- 42
2020-06-28 16:00:00 32 7 Este 19 Nordeste 0 -- -- 42
2020-06-28 15:00:00 30.6 5 Noroeste 17 Este 0 -- -- 45
2020-06-28 14:00:00 30.3 6 Sur 20 Sur 0 -- -- 47
2020-06-28 13:00:00 28.9 9 Sudeste 20 Este 0 -- -- 52
2020-06-28 12:00:00 27.1 9 Sudeste 17 Sudeste 0 -- -- 55
2020-06-28 11:00:00 26.1 5 Sudeste 14 Sur 0 -- -- 60
2020-06-28 10:00:00 23.9 8 Este 15 Este 0 -- -- 67
2020-06-28 09:00:00 22 6 Sudeste 12 Sudeste 0 -- -- 75
2020-06-28 08:00:00 20.4 5 Sur 11 Sudeste 0 -- -- 81
2020-06-28 07:00:00 19.3 5 Sur 12 Este 0 -- -- 85
2020-06-28 06:00:00 19.7 6 Sudeste 12 Sudeste 0 -- -- 83
2020-06-28 05:00:00 20.1 5 Este 9 Sudeste 0 -- -- 82
2020-06-28 04:00:00 21.1 6 Sudeste 16 Sudeste 0 -- -- 75
2020-06-28 03:00:00 21.8 6 Sudeste 15 Sudeste 0 -- -- 68
2020-06-28 02:00:00 23.2 3 Sudeste 13 Noroeste 0 -- -- 52
2020-06-28 01:00:00 22.6 9 Oeste 13 Oeste 0 -- -- 52
2020-06-28 00:00:00 24.4 5 Sur 9 Sur 0 -- -- 48
2020-06-27 23:00:00 25.5 6 Sudoeste 9 Sudoeste 0 -- -- 47
2020-06-27 22:00:00 28.6 4 Este 9 Nordeste 0 -- -- 36
2020-06-27 21:00:00 30.2 7 Nordeste 13 Norte 0 -- -- 36
2020-06-27 20:00:00 31.7 6 Norte 12 Norte 0 -- -- 30
2020-06-27 19:00:00 30.4 6 Noroeste 24 Oeste 0 -- -- 35
2020-06-27 18:00:00 32.6 10 Oeste 20 Norte 0 -- -- 27
2020-06-27 17:00:00 31.5 8 Nordeste 16 Sudeste 0 -- -- 33
2020-06-27 16:00:00 30.1 9 Nordeste 24 Norte 0 -- -- 34
2020-06-27 15:00:00 29.4 10 Norte 19 Nordeste 0 -- -- 37
2020-06-27 14:00:00 28.3 9 Nordeste 16 Nordeste 0 -- -- 41
2020-06-27 13:00:00 27 8 Nordeste 14 Nordeste 0 -- -- 43
2020-06-27 12:00:00 25.2 8 Norte 13 Nordeste 0 -- -- 49
2020-06-27 11:00:00 24.2 5 Norte 10 Nordeste 0 -- -- 54
2020-06-27 10:00:00 22.4 5 Norte 10 Nordeste 0 -- -- 60
2020-06-27 09:00:00 20.7 3 Norte 6 Norte 0 -- -- 63
2020-06-27 08:00:00 18.7 5 Noroeste 17 Noroeste 0 -- -- 70
2020-06-27 07:00:00 17 13 Noroeste 16 Noroeste 0 -- -- 73
2020-06-27 06:00:00 17 9 Noroeste 15 Noroeste 0 -- -- 75
2020-06-27 05:00:00 17.2 13 Noroeste 13 Noroeste 0 -- -- 75
2020-06-27 04:00:00 17 10 Noroeste 14 Noroeste 0 -- -- 78
2020-06-27 03:00:00 17.3 9 Noroeste 13 Noroeste 0 -- -- 78
2020-06-27 02:00:00 17.5 9 Noroeste 11 Oeste 0 -- -- 78
2020-06-27 01:00:00 19.1 4 Este 15 Este 0 -- -- 72
2020-06-27 00:00:00 20 4 Este 19 Este 0 -- -- 69
2020-06-26 23:00:00 21 9 Este 24 Sudeste 0 -- -- 64
2020-06-26 22:00:00 21.4 14 Este 27 Este 0.2 -- -- 63
2020-06-26 21:00:00 23.4 6 Sur 27 Sur 0 -- -- 52
2020-06-26 20:00:00 23 9 Sudeste 33 Este 0.2 -- -- 53
2020-06-26 19:00:00 24 25 Este 51 Este 1 -- -- 50
2020-06-26 18:00:00 27.2 13 Este 22 Este 0 -- -- 41
2020-06-26 17:00:00 29.8 14 Este 28 Este 0 -- -- 32
2020-06-26 16:00:00 31.1 18 Sudeste 29 Sudeste 0 -- -- 29
2020-06-26 15:00:00 31.1 15 Sudeste 28 Sudeste 0 -- -- 29
2020-06-26 14:00:00 29.3 13 Sudeste 26 Sudeste 0 -- -- 36
2020-06-26 13:00:00 27.8 14 Este 24 Sudeste 0 -- -- 43
2020-06-26 12:00:00 25.9 12 Sudeste 24 Sudeste 0 -- -- 48
2020-06-26 11:00:00 24.3 11 Sudeste 20 Sudeste 0 -- -- 56
2020-06-26 10:00:00 22.4 10 Sudeste 17 Sudeste 0 -- -- 61
2020-06-26 09:00:00 21.3 6 Sudeste 12 Sudeste 0 -- -- 70
2020-06-26 08:00:00 18.7 5 Sur 8 Sur 0 -- -- 78
2020-06-26 07:00:00 17.6 5 Sur 7 Sudoeste 0 -- -- 81
2020-06-26 06:00:00 17.9 7 Sur 13 Este 0 -- -- 82
2020-06-26 05:00:00 18.5 4 Sur 12 Sudeste 0 -- -- 82
2020-06-26 04:00:00 19.1 8 Este 18 Nordeste 0 -- -- 75
2020-06-26 03:00:00 19.5 9 Sur 35 Sudeste 0.2 -- -- 73
2020-06-26 02:00:00 19.6 8 Sur 16 Nordeste 0.6 -- -- 79
2020-06-26 01:00:00 20.4 6 Norte 22 Este 0 -- -- 70
2020-06-26 00:00:00 20.3 10 Nordeste 16 Norte 0 -- -- 77
2020-06-25 23:00:00 22 6 Nordeste 15 Sudoeste 0 -- -- 64
2020-06-25 22:00:00 23 13 Nordeste 77 Sudeste 0 -- -- 55
2020-06-25 21:00:00 22.4 22 Sur -- -- 0.4 -- -- 65
2020-06-25 20:00:00 27 23 Sur 59 Sur 0 -- -- 47
2020-06-25 19:00:00 29.7 20 Sur 29 Sur 0 -- -- 36
2020-06-25 18:00:00 30.8 12 Este 24 Este 0 -- -- 38
2020-06-25 17:00:00 32 14 Este 28 Este 0 -- -- 33
2020-06-25 16:00:00 32.4 14 Este 26 Este 0 -- -- 35
2020-06-25 15:00:00 31.6 13 Este 25 Sudeste 0 -- -- 38
2020-06-25 14:00:00 30.4 13 Sudeste 26 Sudeste 0 -- -- 41
2020-06-25 13:00:00 29.4 11 Sudeste 25 Este 0 -- -- 43
2020-06-25 12:00:00 27.5 13 Sudeste 22 Este 0 -- -- 49
2020-06-25 11:00:00 25.6 7 Sudeste 13 Sudeste 0 -- -- 54
2020-06-25 10:00:00 24.6 4 Sudeste 10 Este 0 -- -- 53
2020-06-25 09:00:00 22.9 3 Sudeste 8 Este 0 -- -- 57
2020-06-25 08:00:00 19.9 0 Calma 5 Sudoeste 0 -- -- 67
2020-06-25 07:00:00 18 3 Sudoeste 7 Sudoeste 0 -- -- 73
2020-06-25 06:00:00 17.4 5 Sudoeste 10 Oeste 0 -- -- 77
2020-06-25 05:00:00 17.9 10 Noroeste 15 Noroeste 0 -- -- 76
2020-06-25 04:00:00 17.5 13 Noroeste 17 Noroeste 0 -- -- 77
2020-06-25 03:00:00 17.7 13 Noroeste 18 Noroeste 0 -- -- 75
2020-06-25 02:00:00 20.3 11 Nordeste 15 Nordeste 0 -- -- 65
2020-06-25 01:00:00 19.7 10 Sudoeste 14 Sudoeste 0 -- -- 65
2020-06-25 00:00:00 21.3 9 Sudoeste 12 Sudoeste 0 -- -- 61
2020-06-24 23:00:00 22.3 7 Sur 27 Nordeste 0 -- -- 59
2020-06-24 22:00:00 22.6 8 Este 15 Este 0 -- -- 57
2020-06-24 21:00:00 22.1 10 Este 30 Este 0 -- -- 61
2020-06-24 20:00:00 21.8 18 Nordeste 62 Nordeste 0 -- -- 66
2020-06-24 19:00:00 27 28 Sudoeste 53 Sudoeste 0 -- -- 40
2020-06-24 18:00:00 27.1 43 Sudoeste 64 Sudoeste 0 -- -- 44
2020-06-24 17:00:00 31.9 16 Sudeste 24 Sudeste 0 -- -- 38
2020-06-24 16:00:00 32.3 13 Sudeste 20 Sudeste 0 -- -- 38
2020-06-24 15:00:00 32 9 Este 18 Este 0 -- -- 39
2020-06-24 14:00:00 29.9 9 Sur 19 Este 0 -- -- 43
2020-06-24 13:00:00 28.1 10 Este 18 Nordeste 0 -- -- 47
2020-06-24 12:00:00 26.4 9 Este 18 Este 0 -- -- 49
2020-06-24 11:00:00 24.6 10 Sudeste 20 Este 0 -- -- 56
2020-06-24 10:00:00 23 12 Sudeste 20 Este 0 -- -- 60
2020-06-24 09:00:00 21.7 7 Sudeste 12 Sudeste 0 -- -- 64
2020-06-24 08:00:00 20.4 0 Calma 5 Sudoeste 0 -- -- 69
2020-06-24 07:00:00 18 0 Calma 6 Oeste 0 -- -- 78
2020-06-24 06:00:00 17.8 4 Sur 14 Sudeste 0 -- -- 78
2020-06-24 05:00:00 18.1 6 Sur 9 Sudoeste 0 -- -- 77
2020-06-24 04:00:00 18.5 4 Sudoeste 9 Nordeste 0 -- -- 77
2020-06-24 03:00:00 18.3 9 Norte 14 Noroeste 0 -- -- 78
2020-06-24 02:00:00 20.2 5 Este 14 Sudeste 0 -- -- 70
2020-06-24 01:00:00 20.7 8 Sudeste 17 Este 0 -- -- 69
2020-06-24 00:00:00 22 8 Sudeste 17 Sudeste 0 -- -- 66
2020-06-23 23:00:00 24.1 10 Sudeste 21 Sudeste 0 -- -- 58
2020-06-23 22:00:00 26 13 Sudeste 27 Sudeste 0 -- -- 52
2020-06-23 21:00:00 29 18 Sudeste 28 Sudeste 0 -- -- 44
2020-06-23 20:00:00 30.8 17 Sudeste 27 Este 0 -- -- 41
2020-06-23 19:00:00 31.5 14 Sudeste 26 Este 0 -- -- 36
2020-06-23 18:00:00 31.9 15 Este 25 Este 0 -- -- 35
2020-06-23 17:00:00 32.1 12 Este 27 Este 0 -- -- 36
2020-06-23 16:00:00 31.9 10 Este 23 Sudeste 0 -- -- 37
2020-06-23 15:00:00 30.5 13 Sudeste 31 Sur 0 -- -- 40
2020-06-23 14:00:00 29 12 Sudeste 22 Sudeste 0 -- -- 43
2020-06-23 13:00:00 27.8 10 Este 18 Este 0 -- -- 46
2020-06-23 12:00:00 26.2 9 Sudeste 20 Sur 0 -- -- 51
2020-06-23 11:00:00 24.2 12 Este 18 Sudeste 0 -- -- 57
2020-06-23 10:00:00 22.8 8 Sudeste 17 Sudeste 0 -- -- 63
2020-06-23 09:00:00 21 6 Sudeste 12 Sudeste 0 -- -- 72
2020-06-23 08:00:00 19 3 Sur 5 Sudoeste 0 -- -- 76
2020-06-23 07:00:00 16.9 4 Sudoeste 9 Sudeste 0 -- -- 81
2020-06-23 06:00:00 16.9 4 Sudeste 8 Este 0 -- -- 81
2020-06-23 05:00:00 17.6 2 Sudeste 13 Sudeste 0 -- -- 82
2020-06-23 04:00:00 18.3 7 Sudeste 19 Sudeste 0 -- -- 82
2020-06-23 03:00:00 19.3 10 Sudeste 21 Sudeste 0 -- -- 78
2020-06-23 02:00:00 19.9 11 Sudeste 19 Sudeste 0 -- -- 73
2020-06-23 01:00:00 20.8 4 Sudeste 10 Nordeste 0 -- -- 56
2020-06-23 00:00:00 24.3 6 Norte 10 Norte 0 -- -- 45
2020-06-22 23:00:00 25.9 6 Sudoeste 12 Sur 0 -- -- 43
2020-06-22 22:00:00 27.6 7 Sur 12 Sudeste 0 -- -- 40
2020-06-22 21:00:00 29.7 6 Sudeste 14 Sudeste 0 -- -- 36
2020-06-22 20:00:00 31.1 8 Sudeste 18 Este 0 -- -- 32
2020-06-22 19:00:00 32.2 6 Sudeste 15 Este 0 -- -- 31
2020-06-22 18:00:00 31.6 8 Nordeste 24 Este 0 -- -- 32
2020-06-22 17:00:00 30.7 8 Nordeste 18 Este 0 -- -- 33
2020-06-22 16:00:00 29.8 11 Nordeste 20 Nordeste 0 -- -- 36
2020-06-22 15:00:00 29 13 Nordeste 22 Norte 0 -- -- 37
2020-06-22 14:00:00 28.2 9 Noroeste 25 Noroeste 0 -- -- 37
2020-06-22 13:00:00 26.3 14 Norte 21 Norte 0 -- -- 40
2020-06-22 12:00:00 24.6 9 Noroeste 20 Noroeste 0 -- -- 45
2020-06-22 11:00:00 22.7 12 Noroeste 19 Noroeste 0 -- -- 51
2020-06-22 10:00:00 21.5 11 Noroeste 23 Oeste 0 -- -- 54
2020-06-22 09:00:00 19.8 12 Noroeste 27 Noroeste 0 -- -- 59
2020-06-22 08:00:00 17.8 16 Noroeste 23 Noroeste 0 -- -- 64
2020-06-22 07:00:00 15.6 12 Noroeste 23 Noroeste 0 -- -- 71
2020-06-22 06:00:00 16.2 14 Noroeste 28 Noroeste 0 -- -- 67
2020-06-22 05:00:00 17 15 Noroeste 27 Noroeste 0 -- -- 64
2020-06-22 04:00:00 17.6 11 Oeste 36 Noroeste 0 -- -- 62
2020-06-22 03:00:00 18.1 22 Noroeste 31 Noroeste 0 -- -- 60
2020-06-22 02:00:00 19 20 Noroeste 36 Noroeste 0 -- -- 56
2020-06-22 01:00:00 20.4 25 Noroeste 36 Noroeste 0 -- -- 50
2020-06-22 00:00:00 21.4 27 Noroeste 36 Noroeste 0 -- -- 46
2020-06-21 23:00:00 22.8 21 Noroeste 33 Noroeste 0 -- -- 44
2020-06-21 22:00:00 24.7 18 Oeste 28 Oeste 0 -- -- 37
2020-06-21 21:00:00 28.2 21 Noroeste 38 Noroeste 0 -- -- 26
2020-06-21 20:00:00 30.3 24 Noroeste 42 Noroeste 0 -- -- 23
2020-06-21 19:00:00 31.1 33 Norte 44 Noroeste 0 -- -- 24
2020-06-21 18:00:00 31.7 30 Noroeste 46 Noroeste 0 -- -- 22
2020-06-21 17:00:00 31.8 24 Noroeste 37 Noroeste 0 -- -- 22
2020-06-21 16:00:00 31.3 20 Noroeste 38 Noroeste 0 -- -- 25
2020-06-21 15:00:00 30.9 21 Noroeste 36 Noroeste 0 -- -- 28
2020-06-21 14:00:00 30 11 Oeste 31 Noroeste 0 -- -- 33
2020-06-21 13:00:00 28.7 15 Noroeste 25 Noroeste 0 -- -- 36
2020-06-21 12:00:00 27.6 13 Noroeste 24 Norte 0 -- -- 36
2020-06-21 11:00:00 25.1 8 Noroeste 22 Norte 0 -- -- 40
2020-06-21 10:00:00 22.9 11 Norte 18 Noroeste 0 -- -- 45
2020-06-21 09:00:00 19.3 7 Norte 12 Norte 0 -- -- 59
2020-06-21 08:00:00 16.9 3 Norte 8 Norte 0 -- -- 70
2020-06-21 07:00:00 16.6 3 Sudoeste 14 Oeste 0 -- -- 66
2020-06-21 06:00:00 16.4 6 Oeste 12 Norte 0 -- -- 66
2020-06-21 05:00:00 16.8 11 Noroeste 14 Noroeste 0 -- -- 71
2020-06-21 04:00:00 19.1 6 Noroeste 9 Este 0 -- -- 59
2020-06-21 03:00:00 19.8 7 Sudeste 24 Este 0 -- -- 58
2020-06-21 02:00:00 22.4 17 Noroeste 20 Noroeste 0 -- -- 42
2020-06-21 01:00:00 22 17 Noroeste 21 Noroeste 0 -- -- 50
2020-06-21 00:00:00 23.6 15 Noroeste 20 Noroeste 0 -- -- 45
2020-06-20 23:00:00 24.6 16 Oeste 21 Noroeste 0 -- -- 44
2020-06-20 22:00:00 25.2 14 Noroeste 15 Oeste 0 -- -- 44
2020-06-20 21:00:00 27.8 11 Norte 16 Norte 0 -- -- 40
2020-06-20 20:00:00 29.9 9 Norte 19 Noroeste 0 -- -- 34
2020-06-20 19:00:00 30.1 12 Norte 33 Oeste 0 -- -- 34
2020-06-20 18:00:00 30.1 13 Norte 29 Noroeste 0 -- -- 33
2020-06-20 17:00:00 29.5 14 Norte 27 Noroeste 0 -- -- 32
2020-06-20 16:00:00 28.4 5 Este 18 Nordeste 0 -- -- 47
2020-06-20 15:00:00 27.7 5 Este 18 Sudeste 0 -- -- 50
2020-06-20 14:00:00 27.3 8 Sudeste 16 Sur 0 -- -- 51
2020-06-20 13:00:00 25.6 6 Sudeste 15 Sur 0 -- -- 55
2020-06-20 12:00:00 24.3 4 Sudeste 17 Sur 0 -- -- 60
2020-06-20 11:00:00 22.5 4 Sudeste 11 Sudeste 0 -- -- 65
2020-06-20 10:00:00 20.4 5 Oeste 10 Sur 0 -- -- 76
2020-06-20 09:00:00 17.9 5 Sur 9 Sudoeste 0 -- -- 84
2020-06-20 08:00:00 16.6 4 Noroeste 5 Noroeste 0 -- -- 92
2020-06-20 07:00:00 15.8 2 Norte 4 Sudoeste 0 -- -- 92
2020-06-20 06:00:00 15.7 0 Calma 4 Sudeste 0 -- -- 92
2020-06-20 05:00:00 16.3 3 Sur 9 Este 0 -- -- 90
2020-06-20 04:00:00 16.5 5 Sur 9 Oeste 0 -- -- 90
2020-06-20 03:00:00 16.7 5 Sudeste 10 Este 0 -- -- 89
2020-06-20 02:00:00 17.1 8 Este 15 Sudeste 0 -- -- 87
2020-06-20 01:00:00 18.1 8 Sudeste 21 Sudeste 0 -- -- 83
2020-06-20 00:00:00 19.4 12 Sudeste 20 Sudeste 0 -- -- 76
2020-06-19 23:00:00 20.4 10 Sudeste 15 Sudeste 0 -- -- 72
2020-06-19 22:00:00 22.1 10 Sur 21 Sur 0 -- -- 66
2020-06-19 21:00:00 24.6 12 Sur 26 Sur 0 -- -- 54
2020-06-19 20:00:00 25.6 13 Sudeste 21 Sudeste 0 -- -- 50
2020-06-19 19:00:00 26.2 9 Sur 24 Sudeste 0 -- -- 47
2020-06-19 18:00:00 26.1 6 Sudeste 24 Sudeste 0 -- -- 49
2020-06-19 17:00:00 25.7 11 Sudeste 23 Este 0 -- -- 51
2020-06-19 16:00:00 24.5 6 Este 18 Este 0 -- -- 55
2020-06-19 15:00:00 24 8 Este 20 Sudeste 0 -- -- 57
2020-06-19 14:00:00 23 10 Este 19 Sudeste 0 -- -- 60
2020-06-19 13:00:00 21 10 Sudeste 19 Sudeste 0 -- -- 67
2020-06-19 12:00:00 20.3 6 Sudeste 15 Sudeste 0 -- -- 70
2020-06-19 11:00:00 17.6 9 Sudeste 17 Sudeste 0 -- -- 81
2020-06-19 10:00:00 17.2 10 Sudeste 16 Este 0 -- -- 82
2020-06-19 09:00:00 15.6 6 Sudeste 12 Este 0 -- -- 89
2020-06-19 08:00:00 14.9 5 Sudeste 13 Sudeste 0 -- -- 90
2020-06-19 07:00:00 14.6 4 Este 16 Sudeste 0 -- -- 89
2020-06-19 06:00:00 14.8 7 Sudeste 16 Sudeste 0 -- -- 89
2020-06-19 05:00:00 14.4 10 Sudeste 16 Sudeste 0 -- -- 90
2020-06-19 04:00:00 15.1 12 Sudeste 22 Sudeste 0 -- -- 87
2020-06-19 03:00:00 16.6 12 Sudeste 18 Sudeste 0 -- -- 82
2020-06-19 02:00:00 17.9 6 Sudeste 11 Sudeste 0 -- -- 73
2020-06-19 01:00:00 18.8 6 Sudeste 12 Sudeste 0 -- -- 69
2020-06-19 00:00:00 19.6 4 Sudoeste 12 Sudoeste 0 -- -- 67
2020-06-18 23:00:00 20 7 Sudoeste 11 Sudoeste 0 -- -- 64
2020-06-18 22:00:00 20.8 6 Sudoeste 14 Sur 0 -- -- 63
2020-06-18 21:00:00 21.9 11 Sur 15 Sur 0 -- -- 55
2020-06-18 20:00:00 22.6 9 Sur 14 Sur 0 -- -- 52
2020-06-18 19:00:00 23.6 10 Sur 14 Sur 0 -- -- 48
2020-06-18 18:00:00 23.7 4 Sur 15 Este 0 -- -- 48
2020-06-18 17:00:00 23.1 5 Noroeste 19 Nordeste 0 -- -- 49
2020-06-18 16:00:00 22.5 10 Este 19 Este 0 -- -- 53
2020-06-18 15:00:00 21.2 8 Nordeste 21 Nordeste 0 -- -- 59
2020-06-18 14:00:00 21.5 8 Este 16 Nordeste 0 -- -- 56
2020-06-18 13:00:00 19.3 4 Este 14 Nordeste 0 -- -- 63
2020-06-18 12:00:00 17.3 8 Norte 13 Norte 0 -- -- 70
2020-06-18 11:00:00 15.7 7 Norte 10 Norte 0 -- -- 76
2020-06-18 10:00:00 14.7 5 Norte 9 Norte 0 -- -- 81
2020-06-18 09:00:00 13.3 6 Este 12 Este 0 -- -- 90
2020-06-18 08:00:00 12.8 5 Sudeste 18 Sudeste 0 -- -- 91
2020-06-18 07:00:00 12.5 10 Sudeste 18 Sudoeste 4 -- -- 91
2020-06-18 06:00:00 12.9 9 Sudoeste 18 Sudoeste 3.8 -- -- 89
2020-06-18 05:00:00 13.3 6 Nordeste 17 Este 0.6 -- -- 83
2020-06-18 04:00:00 13.5 10 Sudeste 25 Oeste 4.2 -- -- 81
2020-06-18 03:00:00 15.9 6 Noroeste 14 Norte 0 -- -- 60
2020-06-18 02:00:00 15.8 13 Norte 19 Noroeste 0 -- -- 63
2020-06-18 01:00:00 17.4 12 Noroeste 17 Noroeste 0 -- -- 53
2020-06-18 00:00:00 17.7 14 Noroeste 18 Noroeste 0 -- -- 51
2020-06-17 23:00:00 18 11 Oeste 13 Oeste 0 -- -- 47
2020-06-17 22:00:00 18.6 8 Oeste 10 Noroeste 0 -- -- 47
2020-06-17 21:00:00 20.9 7 Norte 26 Noroeste 0 -- -- 44
2020-06-17 20:00:00 22.6 18 Noroeste 30 Noroeste 0 -- -- 37
2020-06-17 19:00:00 23 22 Noroeste 35 Norte 0 -- -- 35
2020-06-17 18:00:00 23.1 24 Norte 40 Noroeste 0 -- -- 35
2020-06-17 17:00:00 22.9 25 Norte 39 Norte 0 -- -- 36
2020-06-17 16:00:00 23 22 Noroeste 36 Noroeste 0 -- -- 37
2020-06-17 15:00:00 22.4 21 Norte 35 Noroeste 0 -- -- 39
2020-06-17 14:00:00 21.8 18 Noroeste 31 Noroeste 0 -- -- 39
2020-06-17 13:00:00 20.4 21 Norte 31 Noroeste 0 -- -- 44
2020-06-17 12:00:00 19 19 Noroeste 32 Noroeste 0 -- -- 45
2020-06-17 11:00:00 18.6 18 Noroeste 34 Noroeste 0 -- -- 51
2020-06-17 10:00:00 17.6 20 Noroeste 31 Noroeste 0 -- -- 53
2020-06-17 09:00:00 15 19 Noroeste 27 Noroeste 0 -- -- 65
2020-06-17 08:00:00 13.9 19 Noroeste 30 Noroeste 0 -- -- 68
2020-06-17 07:00:00 13.1 25 Noroeste 33 Noroeste 0 -- -- 71
2020-06-17 06:00:00 13 22 Oeste 34 Oeste 0 -- -- 70
2020-06-17 05:00:00 13 23 Oeste 34 Oeste 0 -- -- 71
2020-06-17 04:00:00 13 21 Oeste 31 Noroeste 0 -- -- 74
2020-06-17 03:00:00 14.2 21 Oeste 29 Oeste 0 -- -- 72
2020-06-17 02:00:00 14.5 18 Noroeste 30 Noroeste 0 -- -- 81
2020-06-17 01:00:00 14.9 21 Noroeste 32 Oeste 0 -- -- 79
2020-06-17 00:00:00 15.3 15 Oeste 25 Oeste 0 -- -- 74
2020-06-16 23:00:00 15.8 11 Noroeste 26 Oeste 0 -- -- 71
2020-06-16 22:00:00 17.4 13 Oeste 24 Oeste 0 -- -- 64
2020-06-16 21:00:00 18.6 6 Norte 20 Norte 0 -- -- 63
2020-06-16 20:00:00 18.5 10 Noroeste 37 Norte 0 -- -- 64
2020-06-16 19:00:00 19.5 34 Norte 56 Noroeste 0 -- -- 57
2020-06-16 18:00:00 24.1 19 Noroeste 28 Noroeste 0 -- -- 44
2020-06-16 17:00:00 23 9 Oeste 21 Oeste 0 -- -- 55
2020-06-16 16:00:00 22.4 6 Sudoeste 17 Sudoeste 0 -- -- 53
2020-06-16 15:00:00 20.7 7 Oeste 16 Sudoeste 0 -- -- 63
2020-06-16 14:00:00 17.9 6 Noroeste 17 Oeste 0 -- -- 76
2020-06-16 13:00:00 15.9 7 Noroeste 11 Noroeste 0.4 -- -- 82
2020-06-16 12:00:00 15.4 5 Oeste 13 Este 0.8 -- -- 85
2020-06-16 11:00:00 15.5 3 Este 8 Sur 0.4 -- -- 89
2020-06-16 10:00:00 15 2 Sudeste 6 Sur 0 -- -- 89
2020-06-16 09:00:00 14.4 3 Nordeste 6 Norte 0.6 -- -- 91
2020-06-16 08:00:00 14.2 3 Noroeste 6 Norte 0.6 -- -- 90
2020-06-16 07:00:00 13.9 3 Noroeste 18 Noroeste 0.8 -- -- 91
2020-06-16 06:00:00 14.1 14 Noroeste 26 Oeste 0.6 -- -- 88
2020-06-16 05:00:00 14.8 17 Noroeste 28 Oeste 0.8 -- -- 86
2020-06-16 04:00:00 16.3 13 Oeste 19 Oeste 0.6 -- -- 78
2020-06-16 03:00:00 17.9 6 Oeste 13 Oeste 0 -- -- 69
2020-06-16 02:00:00 17.7 9 Noroeste 22 Noroeste 0 -- -- 68
2020-06-16 01:00:00 18.8 15 Noroeste 22 Noroeste 0 -- -- 62
2020-06-16 00:00:00 19.2 13 Oeste 18 Noroeste 0 -- -- 60
2020-06-15 23:00:00 19.1 9 Oeste 20 Noroeste 0.2 -- -- 62
2020-06-15 22:00:00 20.6 12 Oeste 15 Oeste 0 -- -- 48
2020-06-15 21:00:00 21.3 9 Noroeste 18 Norte 0 -- -- 48
2020-06-15 20:00:00 23.4 14 Norte 32 Norte 0 -- -- 41
2020-06-15 19:00:00 25.7 19 Norte 30 Noroeste 0 -- -- 36
2020-06-15 18:00:00 26.2 15 Norte 28 Noroeste 0 -- -- 35
2020-06-15 17:00:00 25.5 8 Noroeste 36 Noroeste 0 -- -- 36
2020-06-15 16:00:00 26.1 14 Noroeste 29 Norte 0 -- -- 34
2020-06-15 15:00:00 25.2 17 Noroeste 33 Oeste 0 -- -- 35
2020-06-15 14:00:00 24.9 13 Noroeste 28 Noroeste 0 -- -- 37
2020-06-15 13:00:00 23.9 15 Norte 28 Noroeste 0 -- -- 40
2020-06-15 12:00:00 22.2 17 Noroeste 33 Noroeste 0 -- -- 44
2020-06-15 11:00:00 20.4 20 Noroeste 27 Noroeste 0 -- -- 48
2020-06-15 10:00:00 20.9 15 Noroeste 23 Noroeste 0 -- -- 48
2020-06-15 09:00:00 18.7 17 Noroeste 23 Noroeste 0 -- -- 54
2020-06-15 08:00:00 16.5 14 Noroeste 20 Noroeste 0 -- -- 61
2020-06-15 07:00:00 14.8 16 Noroeste 23 Noroeste 0 -- -- 68
2020-06-15 06:00:00 14.8 15 Noroeste 24 Noroeste 0 -- -- 68
2020-06-15 05:00:00 16.1 18 Noroeste 26 Oeste 0 -- -- 62
2020-06-15 04:00:00 17.3 14 Noroeste 21 Oeste 0 -- -- 57
2020-06-15 03:00:00 18.4 10 Oeste 14 Oeste 0 -- -- 54
2020-06-15 02:00:00 18.9 11 Noroeste 21 Noroeste 0 -- -- 53
2020-06-15 01:00:00 18.8 16 Noroeste 22 Noroeste 0 -- -- 53
2020-06-15 00:00:00 19.4 15 Noroeste 21 Noroeste 0 -- -- 50
2020-06-14 23:00:00 19 9 Noroeste 12 Noroeste 0 -- -- 53
2020-06-14 22:00:00 20 6 Noroeste 14 Norte 0 -- -- 49
2020-06-14 21:00:00 21.8 12 Norte 20 Norte 0 -- -- 43
2020-06-14 20:00:00 24 15 Norte 23 Noroeste 0 -- -- 37
2020-06-14 19:00:00 24.6 17 Noroeste 26 Noroeste 0 -- -- 32
2020-06-14 18:00:00 24.9 13 Norte 22 Norte 0 -- -- 33
2020-06-14 17:00:00 25.2 12 Noroeste 19 Noroeste 0 -- -- 33
2020-06-14 16:00:00 24.7 8 Noroeste 21 Noroeste 0 -- -- 35
2020-06-14 15:00:00 24.8 7 Sudoeste 17 Sudoeste 0 -- -- 35
2020-06-14 14:00:00 23.7 6 Nordeste 18 Nordeste 0 -- -- 39
2020-06-14 13:00:00 24 8 Nordeste 17 Este 0 -- -- 38
2020-06-14 12:00:00 23.9 7 Sur 15 Sudeste 0 -- -- 38
2020-06-14 11:00:00 21.9 6 Sudeste 12 Sur 0 -- -- 45
2020-06-14 10:00:00 20.1 5 Sur 9 Sudeste 0 -- -- 45
2020-06-14 09:00:00 17.6 4 Sur 8 Sur 0 -- -- 56
2020-06-14 08:00:00 15.5 0 Calma 4 Sur 0 -- -- 64
2020-06-14 07:00:00 13.9 0 Calma 11 Nordeste 0 -- -- 67
2020-06-14 06:00:00 13.9 10 Norte 11 Norte 0 -- -- 68
2020-06-14 05:00:00 15.5 3 Sur 6 Sudoeste 0 -- -- 61
2020-06-14 04:00:00 16.8 2 Oeste 6 Sudoeste 0 -- -- 52
2020-06-14 03:00:00 16.6 4 Sudoeste 9 Sudoeste 0 -- -- 53
2020-06-14 02:00:00 17.1 2 Sudoeste 14 Oeste 0 -- -- 53
2020-06-14 01:00:00 17.4 13 Noroeste 14 Noroeste 0 -- -- 50
2020-06-14 00:00:00 17.7 12 Noroeste 15 Noroeste 0 -- -- 48
2020-06-13 23:00:00 17.8 14 Noroeste 15 Noroeste 0 -- -- 46
2020-06-13 22:00:00 17.8 10 Noroeste 14 Noroeste 0 -- -- 46
2020-06-13 21:00:00 20.8 12 Noroeste 24 Noroeste 0 -- -- 39
2020-06-13 20:00:00 22.6 18 Noroeste 37 Noroeste 0 -- -- 33
2020-06-13 19:00:00 22.9 20 Noroeste 38 Noroeste 0 -- -- 31
2020-06-13 18:00:00 22.9 19 Noroeste 39 Noroeste 0 -- -- 34
2020-06-13 17:00:00 22.4 24 Noroeste 42 Noroeste 0 -- -- 36
2020-06-13 16:00:00 21.2 25 Noroeste 41 Oeste 0 -- -- 39
2020-06-13 15:00:00 22.4 24 Noroeste 40 Noroeste 0 -- -- 36
2020-06-13 14:00:00 20.8 19 Noroeste 33 Noroeste 0 -- -- 40
2020-06-13 13:00:00 19.9 17 Noroeste 39 Noroeste 0 -- -- 44
2020-06-13 12:00:00 20.2 23 Noroeste 45 Noroeste 0 -- -- 45
2020-06-13 11:00:00 18.6 26 Noroeste 44 Noroeste 0 -- -- 50
2020-06-13 10:00:00 17.6 23 Noroeste 35 Noroeste 0 -- -- 53
2020-06-13 09:00:00 16.4 18 Noroeste 28 Oeste 0 -- -- 58
2020-06-13 08:00:00 13.4 6 Norte 10 Noroeste 0 -- -- 74
2020-06-13 07:00:00 12.3 8 Noroeste 22 Oeste 0 -- -- 73
2020-06-13 06:00:00 12.7 14 Oeste 17 Noroeste 0 -- -- 71
2020-06-13 05:00:00 12.5 12 Noroeste 15 Noroeste 0 -- -- 72
2020-06-13 04:00:00 12.9 4 Noroeste 6 Oeste 0 -- -- 68
2020-06-13 03:00:00 12.8 3 Noroeste 9 Noroeste 0 -- -- 71
2020-06-13 02:00:00 13.3 7 Noroeste 30 Noroeste 0 -- -- 69
2020-06-13 01:00:00 14.9 15 Noroeste 21 Noroeste 0 -- -- 63
2020-06-13 00:00:00 14.6 10 Noroeste 15 Noroeste 0 -- -- 68
2020-06-12 23:00:00 14.3 11 Noroeste 43 Noroeste 0 -- -- 70
2020-06-12 22:00:00 19.8 5 Sudeste 10 Sudeste 0 -- -- 42
2020-06-12 21:00:00 21.3 3 Sur 16 Noroeste 0 -- -- 37
2020-06-12 20:00:00 22.4 10 Oeste 27 Noroeste 0 -- -- 34
2020-06-12 19:00:00 22 17 Oeste 26 Oeste 0 -- -- 34
2020-06-12 18:00:00 21.7 12 Oeste 24 Noroeste 0 -- -- 37
2020-06-12 17:00:00 21.9 7 Oeste 32 Noroeste 0 -- -- 36
2020-06-12 16:00:00 21.2 17 Oeste 36 Noroeste 0 -- -- 36
2020-06-12 15:00:00 21.2 19 Oeste 33 Oeste 0 -- -- 37
2020-06-12 14:00:00 20.6 19 Oeste 39 Noroeste 0 -- -- 40
2020-06-12 13:00:00 18.5 14 Oeste 36 Oeste 0 -- -- 45
2020-06-12 12:00:00 17.5 21 Oeste 33 Oeste 0 -- -- 48
2020-06-12 11:00:00 17.5 21 Oeste 32 Oeste 0 -- -- 45
2020-06-12 10:00:00 15.8 15 Noroeste 22 Noroeste 0 -- -- 57
2020-06-12 09:00:00 13.6 7 Noroeste 20 Norte 0 -- -- 71
2020-06-12 08:00:00 12.1 0 Calma 9 Noroeste 0 -- -- 83
2020-06-12 07:00:00 11.7 6 Oeste 10 Oeste 0 -- -- 79
2020-06-12 06:00:00 11.7 10 Oeste 15 Oeste 0 -- -- 82
2020-06-12 05:00:00 11.1 5 Oeste 11 Norte 0 -- -- 86
2020-06-12 04:00:00 12 8 Oeste 20 Noroeste 0 -- -- 85
2020-06-12 03:00:00 13 10 Noroeste 26 Noroeste 0 -- -- 86
2020-06-12 02:00:00 14 11 Oeste 29 Oeste 0 -- -- 85
2020-06-12 01:00:00 15 12 Oeste 28 Noroeste 0.2 -- -- 88
2020-06-12 00:00:00 15.5 18 Noroeste 26 Noroeste 0.8 -- -- 91
2020-06-11 23:00:00 15.6 6 Sudeste 11 Sur 0 -- -- 89
2020-06-11 22:00:00 15.9 9 Sur 25 Noroeste 0.6 -- -- 89
2020-06-11 21:00:00 16 22 Norte 28 Norte 1.8 -- -- 85
2020-06-11 20:00:00 19.8 9 Este 25 Este 0 -- -- 61
2020-06-11 19:00:00 20.7 17 Este 27 Este 0 -- -- 56
2020-06-11 18:00:00 21.4 12 Este 17 Nordeste 0 -- -- 51
2020-06-11 17:00:00 21.7 7 Nordeste 15 Nordeste 0 -- -- 48
2020-06-11 16:00:00 20.9 8 Nordeste 13 Este 0 -- -- 54
2020-06-11 15:00:00 22.6 8 Sur 20 Sudeste 0 -- -- 44
2020-06-11 14:00:00 23.4 8 Este 19 Sudeste 0 -- -- 44
2020-06-11 13:00:00 22.1 6 Sudeste 19 Sudeste 0 -- -- 46
2020-06-11 12:00:00 20.6 9 Sur 20 Este 0 -- -- 51
2020-06-11 11:00:00 18.4 10 Sudeste 18 Sudeste 0 -- -- 55
2020-06-11 10:00:00 16.8 10 Sudeste 19 Sudeste 0 -- -- 59
2020-06-11 09:00:00 15.1 9 Sudeste 15 Sudeste 0 -- -- 68
2020-06-11 08:00:00 14.3 3 Sudeste 6 Sudeste 0 -- -- 67
2020-06-11 07:00:00 14 3 Sudoeste 5 Sudoeste 0 -- -- 68
2020-06-11 06:00:00 14.1 4 Sudoeste 11 Norte 0 -- -- 69
2020-06-11 05:00:00 13.9 8 Norte 14 Norte 0 -- -- 69
2020-06-11 04:00:00 14.3 11 Norte 15 Nordeste 0 -- -- 65
2020-06-11 03:00:00 15.2 6 Oeste 19 Oeste 0 -- -- 56
2020-06-11 02:00:00 16.2 8 Sudoeste 13 Sudoeste 0 -- -- 50
2020-06-11 01:00:00 16.3 12 Oeste 21 Noroeste 0 -- -- 51
2020-06-11 00:00:00 15.9 3 Sudoeste 18 Oeste 0 -- -- 52
2020-06-10 23:00:00 16.5 6 Noroeste 21 Oeste 0 -- -- 53
2020-06-10 22:00:00 17.2 18 Noroeste 35 Noroeste 0 -- -- 47
2020-06-10 21:00:00 18.6 18 Oeste 34 Noroeste 0 -- -- 43
2020-06-10 20:00:00 19.3 20 Noroeste 35 Noroeste 0 -- -- 39
2020-06-10 19:00:00 20.1 24 Noroeste 34 Noroeste 0 -- -- 37
2020-06-10 18:00:00 20.9 23 Noroeste 41 Noroeste 0 -- -- 38
2020-06-10 17:00:00 22.5 21 Noroeste 38 Noroeste 0 -- -- 34
2020-06-10 16:00:00 23.2 19 Noroeste 38 Oeste 0 -- -- 33
2020-06-10 15:00:00 22.3 18 Noroeste 32 Noroeste 0 -- -- 35
2020-06-10 14:00:00 21.6 15 Oeste 26 Oeste 0 -- -- 38
2020-06-10 13:00:00 20.5 10 Oeste 29 Noroeste 0 -- -- 40
2020-06-10 12:00:00 19.4 10 Noroeste 25 Noroeste 0 -- -- 44
2020-06-10 11:00:00 17 17 Noroeste 31 Noroeste 0 -- -- 51
2020-06-10 10:00:00 15.4 21 Noroeste 30 Noroeste 0 -- -- 59
2020-06-10 09:00:00 14.6 18 Noroeste 29 Noroeste 0 -- -- 63
2020-06-10 08:00:00 12.9 13 Noroeste 23 Noroeste 0 -- -- 71
2020-06-10 07:00:00 10.7 16 Noroeste 24 Noroeste 0 -- -- 81
2020-06-10 06:00:00 10.4 18 Noroeste 24 Noroeste 0 -- -- 82
2020-06-10 05:00:00 10.5 15 Noroeste 22 Noroeste 0 -- -- 80
2020-06-10 04:00:00 10.9 17 Noroeste 24 Noroeste 0 -- -- 78
2020-06-10 03:00:00 11.6 18 Noroeste 30 Noroeste 0 -- -- 75
2020-06-10 02:00:00 12.2 22 Noroeste 39 Noroeste 0 -- -- 72
2020-06-10 01:00:00 12.7 25 Noroeste 39 Noroeste 0 -- -- 68
2020-06-10 00:00:00 13.3 27 Noroeste 39 Noroeste 0 -- -- 65
2020-06-09 23:00:00 14.5 28 Noroeste 44 Noroeste 0 -- -- 58
2020-06-09 22:00:00 15.5 27 Noroeste 45 Noroeste 0 -- -- 54
2020-06-09 21:00:00 17.5 33 Noroeste 53 Noroeste 0 -- -- 46
2020-06-09 20:00:00 19.4 32 Noroeste 53 Noroeste 0 -- -- 42
2020-06-09 19:00:00 20.7 33 Noroeste 53 Noroeste 0 -- -- 40
2020-06-09 18:00:00 21.1 33 Noroeste 50 Noroeste 0 -- -- 39
2020-06-09 17:00:00 21.6 30 Noroeste 48 Oeste 0 -- -- 36
2020-06-09 16:00:00 21.9 23 Noroeste 37 Noroeste 0 -- -- 34
2020-06-09 15:00:00 21.7 21 Oeste 44 Oeste 0 -- -- 36
2020-06-09 14:00:00 20.9 22 Oeste 48 Noroeste 0 -- -- 40
2020-06-09 13:00:00 20 22 Noroeste 37 Noroeste 0 -- -- 41
2020-06-09 12:00:00 18.8 23 Noroeste 39 Noroeste 0 -- -- 43
2020-06-09 11:00:00 17.4 23 Noroeste 40 Noroeste 0 -- -- 48
2020-06-09 10:00:00 16.3 28 Norte 42 Noroeste 0 -- -- 52
2020-06-09 09:00:00 13.6 29 Noroeste 41 Noroeste 0 -- -- 61
2020-06-09 08:00:00 12.1 27 Noroeste 36 Noroeste 0 -- -- 68
2020-06-09 07:00:00 10.8 23 Noroeste 35 Noroeste 0 -- -- 73
2020-06-09 06:00:00 10.7 25 Noroeste 38 Noroeste 0 -- -- 73
2020-06-09 05:00:00 10.9 23 Noroeste 39 Noroeste 0 -- -- 72
2020-06-09 04:00:00 11.5 25 Noroeste 38 Noroeste 0 -- -- 72
2020-06-09 03:00:00 11.6 26 Noroeste 41 Noroeste 0 -- -- 73
2020-06-09 02:00:00 11.8 26 Noroeste 46 Noroeste 0 -- -- 72
2020-06-09 01:00:00 12.5 31 Noroeste 50 Noroeste 0 -- -- 68
2020-06-09 00:00:00 13 35 Noroeste 58 Noroeste 0 -- -- 64
2020-06-08 23:00:00 13.8 39 Noroeste 58 Noroeste 0 -- -- 60
2020-06-08 22:00:00 14.6 42 Noroeste 64 Noroeste 0 -- -- 58
2020-06-08 21:00:00 16.4 41 Noroeste 63 Noroeste 0 -- -- 53
2020-06-08 20:00:00 19.1 40 Noroeste 59 Noroeste 0 -- -- 42
2020-06-08 19:00:00 20.3 36 Noroeste 55 Noroeste 0 -- -- 41
2020-06-08 18:00:00 21.6 35 Noroeste 59 Noroeste 0 -- -- 38
2020-06-08 17:00:00 22 35 Noroeste 50 Noroeste 0 -- -- 37
2020-06-08 16:00:00 21.9 29 Noroeste 52 Oeste 0 -- -- 36
2020-06-08 15:00:00 20.9 23 Noroeste 39 Noroeste 0 -- -- 38
2020-06-08 14:00:00 21.4 14 Noroeste 42 Noroeste 0 -- -- 37
2020-06-08 13:00:00 20 17 Noroeste 35 Noroeste 0 -- -- 39
2020-06-08 12:00:00 18.6 19 Noroeste 34 Noroeste 0 -- -- 45
2020-06-08 11:00:00 16.8 22 Noroeste 35 Oeste 0 -- -- 52
2020-06-08 10:00:00 14.8 24 Noroeste 36 Oeste 0 -- -- 57
2020-06-08 09:00:00 13 28 Noroeste 39 Noroeste 0 -- -- 65
2020-06-08 08:00:00 10.6 22 Noroeste 34 Oeste 0 -- -- 74
2020-06-08 07:00:00 9.9 23 Noroeste 35 Noroeste 0 -- -- 76
2020-06-08 06:00:00 9.4 26 Noroeste 36 Noroeste 0 -- -- 78
2020-06-08 05:00:00 9.4 25 Noroeste 41 Noroeste 0 -- -- 77
2020-06-08 04:00:00 9.7 26 Noroeste 40 Noroeste 0 -- -- 74
2020-06-08 03:00:00 9.6 23 Noroeste 41 Noroeste 0 -- -- 74
2020-06-08 02:00:00 10.2 24 Noroeste 46 Noroeste 0 -- -- 71
2020-06-08 01:00:00 11 27 Noroeste 48 Noroeste 0 -- -- 68
2020-06-08 00:00:00 11.6 31 Noroeste 44 Noroeste 0 -- -- 65
2020-06-07 23:00:00 12.4 32 Noroeste 43 Noroeste 0 -- -- 59
2020-06-07 22:00:00 13.6 24 Noroeste 53 Noroeste 0 -- -- 56
2020-06-07 21:00:00 16 36 Noroeste 54 Noroeste 0 -- -- 51
2020-06-07 20:00:00 16.5 39 Noroeste 51 Noroeste 0 -- -- 53
2020-06-07 19:00:00 16.3 30 Noroeste 44 Noroeste 0 -- -- 58
2020-06-07 18:00:00 15.8 28 Noroeste 50 Noroeste 0.2 -- -- 65
2020-06-07 17:00:00 17.9 32 Noroeste 48 Oeste 0 -- -- 57
2020-06-07 16:00:00 18.9 31 Noroeste 44 Noroeste 0 -- -- 56
2020-06-07 15:00:00 22 29 Noroeste 45 Noroeste 0 -- -- 46
2020-06-07 14:00:00 20.7 24 Noroeste 38 Oeste 0 -- -- 49
2020-06-07 13:00:00 20 21 Oeste 37 Noroeste 0 -- -- 54
2020-06-07 12:00:00 18.3 22 Noroeste 36 Oeste 0 -- -- 58
2020-06-07 11:00:00 17.7 18 Noroeste 31 Noroeste 0 -- -- 62
2020-06-07 10:00:00 16.1 14 Noroeste 31 Noroeste 0 -- -- 71
2020-06-07 09:00:00 16.3 19 Noroeste 30 Noroeste 0 -- -- 73
2020-06-07 08:00:00 15 21 Noroeste 29 Noroeste 0 -- -- 78
2020-06-07 07:00:00 13.9 15 Oeste 26 Oeste 0 -- -- 83
2020-06-07 06:00:00 13.6 19 Noroeste 28 Noroeste 0 -- -- 84
2020-06-07 05:00:00 13.9 12 Noroeste 22 Noroeste 0 -- -- 83
2020-06-07 04:00:00 13.6 11 Noroeste 33 Oeste 0 -- -- 86
2020-06-07 03:00:00 14.6 20 Oeste 33 Oeste 0 -- -- 85
2020-06-07 02:00:00 16.1 14 Oeste 21 Oeste 0 -- -- 78
2020-06-07 01:00:00 16.3 13 Oeste 17 Noroeste 0 -- -- 75
2020-06-07 00:00:00 16.1 7 Noroeste 26 Noroeste 0 -- -- 81